sensor_id;sensor_type;location;lat;lon;timestamp;pressure;altitude;pressure_sealevel;temperature;humidity
55456;BME280;63021;52.836;6.376;2023-05-12T00:00:39;101828.91;;;11.95;79.74
55456;BME280;63021;52.836;6.376;2023-05-12T00:03:04;101820.91;;;11.95;79.73
55456;BME280;63021;52.836;6.376;2023-05-12T00:05:30;101825.28;;;11.96;79.86
55456;BME280;63021;52.836;6.376;2023-05-12T00:07:55;101827.09;;;11.95;79.69
55456;BME280;63021;52.836;6.376;2023-05-12T00:10:21;101825.28;;;11.96;79.41
55456;BME280;63021;52.836;6.376;2023-05-12T00:12:47;101820.91;;;11.95;79.73
55456;BME280;63021;52.836;6.376;2023-05-12T00:15:12;101812.75;;;11.96;79.52
55456;BME280;63021;52.836;6.376;2023-05-12T00:17:37;101825.13;;;11.98;79.54
55456;BME280;63021;52.836;6.376;2023-05-12T00:20:03;101814.47;;;11.98;79.51
55456;BME280;63021;52.836;6.376;2023-05-12T00:22:30;101816.03;;;12.00;79.85
55456;BME280;63021;52.836;6.376;2023-05-12T00:24:55;101818.56;;;12.02;79.76
55456;BME280;63021;52.836;6.376;2023-05-12T00:27:21;101818.44;;;12.03;79.79
55456;BME280;63021;52.836;6.376;2023-05-12T00:29:46;101812.25;;;12.03;79.93
55456;BME280;63021;52.836;6.376;2023-05-12T00:32:11;101815.63;;;12.05;79.80
55456;BME280;63021;52.836;6.376;2023-05-12T00:34:37;101804.94;;;12.05;79.70
55456;BME280;63021;52.836;6.376;2023-05-12T00:37:02;101811.00;;;12.07;79.82
55456;BME280;63021;52.836;6.376;2023-05-12T00:39:28;101804.81;;;12.06;79.55
55456;BME280;63021;52.836;6.376;2023-05-12T00:41:57;101802.72;;;12.10;80.17
55456;BME280;63021;52.836;6.376;2023-05-12T00:44:23;101805.41;;;12.10;79.67
55456;BME280;63021;52.836;6.376;2023-05-12T00:46:49;101803.44;;;12.12;79.77
55456;BME280;63021;52.836;6.376;2023-05-12T00:49:15;101807.06;;;12.11;79.95
55456;BME280;63021;52.836;6.376;2023-05-12T00:51:41;101807.06;;;12.11;79.83
55456;BME280;63021;52.836;6.376;2023-05-12T00:54:07;101805.28;;;12.11;79.76
55456;BME280;63021;52.836;6.376;2023-05-12T00:56:34;101814.97;;;12.12;79.83
55456;BME280;63021;52.836;6.376;2023-05-12T00:59:04;101806.09;;;12.12;79.41
55456;BME280;63021;52.836;6.376;2023-05-12T01:01:30;101807.94;;;12.11;79.76
55456;BME280;63021;52.836;6.376;2023-05-12T01:03:56;101798.09;;;12.12;79.64
55456;BME280;63021;52.836;6.376;2023-05-12T01:06:28;101802.59;;;12.11;80.06
55456;BME280;63021;52.836;6.376;2023-05-12T01:08:54;101792.06;;;12.10;79.74
55456;BME280;63021;52.836;6.376;2023-05-12T01:11:19;101804.41;;;12.11;79.98
55456;BME280;63021;52.836;6.376;2023-05-12T01:13:46;101797.53;;;12.08;79.89
55456;BME280;63021;52.836;6.376;2023-05-12T01:16:14;101800.06;;;12.10;80.41
55456;BME280;63021;52.836;6.376;2023-05-12T01:18:42;101800.06;;;12.10;80.16
55456;BME280;63021;52.836;6.376;2023-05-12T01:21:14;101789.53;;;12.08;79.52
55456;BME280;63021;52.836;6.376;2023-05-12T01:23:43;101791.06;;;12.11;79.89
55456;BME280;63021;52.836;6.376;2023-05-12T01:26:11;101792.06;;;12.10;80.22
55456;BME280;63021;52.836;6.376;2023-05-12T01:28:37;101789.38;;;12.10;80.14
55456;BME280;63021;52.836;6.376;2023-05-12T01:31:06;101793.63;;;12.12;80.34
55456;BME280;63021;52.836;6.376;2023-05-12T01:33:33;101792.75;;;12.12;80.13
55456;BME280;63021;52.836;6.376;2023-05-12T01:35:59;101803.44;;;12.12;79.93
55456;BME280;63021;52.836;6.376;2023-05-12T01:38:25;101805.13;;;12.13;80.60
55456;BME280;63021;52.836;6.376;2023-05-12T01:40:51;101799.78;;;12.13;80.58
55456;BME280;63021;52.836;6.376;2023-05-12T01:43:16;101802.59;;;12.11;79.88
55456;BME280;63021;52.836;6.376;2023-05-12T01:45:42;101807.66;;;12.15;79.84
55456;BME280;63021;52.836;6.376;2023-05-12T01:48:07;101806.69;;;12.16;80.04
55456;BME280;63021;52.836;6.376;2023-05-12T01:50:32;101813.56;;;12.18;80.74
55456;BME280;63021;52.836;6.376;2023-05-12T01:52:58;101813.47;;;12.20;80.26
55456;BME280;63021;52.836;6.376;2023-05-12T01:55:23;101813.31;;;12.21;80.26
55456;BME280;63021;52.836;6.376;2023-05-12T01:57:48;101807.13;;;12.21;80.09
55456;BME280;63021;52.836;6.376;2023-05-12T02:00:14;101813.31;;;12.21;80.04
55456;BME280;63021;52.836;6.376;2023-05-12T02:02:40;101815.00;;;12.22;79.84
55456;BME280;63021;52.836;6.376;2023-05-12T02:05:07;101817.53;;;12.24;80.27
55456;BME280;63021;52.836;6.376;2023-05-12T02:07:32;101823.00;;;12.22;80.34
55456;BME280;63021;52.836;6.376;2023-05-12T02:09:58;101825.69;;;12.22;80.55
55456;BME280;63021;52.836;6.376;2023-05-12T02:12:23;101826.41;;;12.24;80.31
55456;BME280;63021;52.836;6.376;2023-05-12T02:14:48;101819.22;;;12.25;80.28
55456;BME280;63021;52.836;6.376;2023-05-12T02:17:14;101833.41;;;12.25;80.05
55456;BME280;63021;52.836;6.376;2023-05-12T02:19:41;101829.63;;;12.28;80.26
55456;BME280;63021;52.836;6.376;2023-05-12T02:22:07;101822.50;;;12.28;80.48
55456;BME280;63021;52.836;6.376;2023-05-12T02:24:32;101828.38;;;12.32;80.09
55456;BME280;63021;52.836;6.376;2023-05-12T02:26:57;101826.59;;;12.33;80.17
55456;BME280;63021;52.836;6.376;2023-05-12T02:29:23;101822.91;;;12.34;80.35
55456;BME280;63021;52.836;6.376;2023-05-12T02:31:48;101824.63;;;12.35;79.86
55456;BME280;63021;52.836;6.376;2023-05-12T02:34:13;101813.09;;;12.34;79.87
55456;BME280;63021;52.836;6.376;2023-05-12T02:36:39;101805.94;;;12.35;80.47
55456;BME280;63021;52.836;6.376;2023-05-12T02:39:04;101809.44;;;12.35;80.41
55456;BME280;63021;52.836;6.376;2023-05-12T02:41:30;101818.16;;;12.37;80.67
55456;BME280;63021;52.836;6.376;2023-05-12T02:43:55;101819.97;;;12.37;80.29
55456;BME280;63021;52.836;6.376;2023-05-12T02:46:20;101824.19;;;12.39;80.35
55456;BME280;63021;52.836;6.376;2023-05-12T02:48:46;101816.19;;;12.39;81.00
55456;BME280;63021;52.836;6.376;2023-05-12T02:51:11;101822.41;;;12.40;80.94
55456;BME280;63021;52.836;6.376;2023-05-12T02:53:36;101831.09;;;12.42;81.04
55456;BME280;63021;52.836;6.376;2023-05-12T02:56:02;101833.63;;;12.43;80.41
55456;BME280;63021;52.836;6.376;2023-05-12T02:58:27;101827.47;;;12.43;80.74
55456;BME280;63021;52.836;6.376;2023-05-12T03:00:53;101830.13;;;12.43;80.99
55456;BME280;63021;52.836;6.376;2023-05-12T03:03:18;101831.81;;;12.44;80.43
55456;BME280;63021;52.836;6.376;2023-05-12T03:05:44;101836.16;;;12.45;80.60
55456;BME280;63021;52.836;6.376;2023-05-12T03:08:09;101828.31;;;12.43;81.01
55456;BME280;63021;52.836;6.376;2023-05-12T03:10:35;101825.50;;;12.45;81.42
55456;BME280;63021;52.836;6.376;2023-05-12T03:13:01;101818.44;;;12.44;81.13
55456;BME280;63021;52.836;6.376;2023-05-12T03:15:27;101822.81;;;12.45;81.37
55456;BME280;63021;52.836;6.376;2023-05-12T03:17:52;101812.13;;;12.45;81.00
55456;BME280;63021;52.836;6.376;2023-05-12T03:20:18;101817.34;;;12.46;80.71
55456;BME280;63021;52.836;6.376;2023-05-12T03:22:44;101828.75;;;12.48;81.32
55456;BME280;63021;52.836;6.376;2023-05-12T03:25:10;101832.25;;;12.49;80.71
55456;BME280;63021;52.836;6.376;2023-05-12T03:27:35;101829.59;;;12.49;81.02
55456;BME280;63021;52.836;6.376;2023-05-12T03:30:01;101825.94;;;12.50;81.28
55456;BME280;63021;52.836;6.376;2023-05-12T03:32:29;101828.63;;;12.50;81.14
55456;BME280;63021;52.836;6.376;2023-05-12T03:34:54;101833.81;;;12.52;81.54
55456;BME280;63021;52.836;6.376;2023-05-12T03:37:19;101827.47;;;12.53;81.81
55456;BME280;63021;52.836;6.376;2023-05-12T03:39:45;101835.63;;;12.51;81.19
55456;BME280;63021;52.836;6.376;2023-05-12T03:42:10;101840.00;;;12.52;80.88
55456;BME280;63021;52.836;6.376;2023-05-12T03:44:36;101836.50;;;12.52;80.81
55456;BME280;63021;52.836;6.376;2023-05-12T03:47:01;101843.63;;;12.51;81.05
55456;BME280;63021;52.836;6.376;2023-05-12T03:49:27;101830.28;;;12.51;80.98
55456;BME280;63021;52.836;6.376;2023-05-12T03:51:52;101839.16;;;12.52;81.48
55456;BME280;63021;52.836;6.376;2023-05-12T03:54:17;101847.88;;;12.54;81.59
55456;BME280;63021;52.836;6.376;2023-05-12T03:56:43;101846.06;;;12.54;81.18
55456;BME280;63021;52.836;6.376;2023-05-12T03:59:08;101841.56;;;12.55;80.97
55456;BME280;63021;52.836;6.376;2023-05-12T04:01:36;101840.72;;;12.54;81.48
55456;BME280;63021;52.836;6.376;2023-05-12T04:04:01;101844.22;;;12.55;81.22
55456;BME280;63021;52.836;6.376;2023-05-12T04:06:27;101842.38;;;12.55;81.37
55456;BME280;63021;52.836;6.376;2023-05-12T04:08:52;101838.59;;;12.58;81.02
55456;BME280;63021;52.836;6.376;2023-05-12T04:11:17;101840.31;;;12.59;81.41
55456;BME280;63021;52.836;6.376;2023-05-12T04:13:43;101843.94;;;12.58;81.20
55456;BME280;63021;52.836;6.376;2023-05-12T04:16:08;101842.13;;;12.58;81.27
55456;BME280;63021;52.836;6.376;2023-05-12T04:18:34;101852.81;;;12.58;81.47
55456;BME280;63021;52.836;6.376;2023-05-12T04:21:01;101852.56;;;12.61;81.42
55456;BME280;63021;52.836;6.376;2023-05-12T04:23:27;101843.69;;;12.61;81.52
55456;BME280;63021;52.836;6.376;2023-05-12T04:25:52;101846.34;;;12.61;81.42
55456;BME280;63021;52.836;6.376;2023-05-12T04:28:18;101841.88;;;12.61;81.56
55456;BME280;63021;52.836;6.376;2023-05-12T04:30:43;101844.25;;;12.64;81.54
55456;BME280;63021;52.836;6.376;2023-05-12T04:33:09;101839.63;;;12.67;81.81
55456;BME280;63021;52.836;6.376;2023-05-12T04:35:35;101843.97;;;12.68;81.88
55456;BME280;63021;52.836;6.376;2023-05-12T04:38:00;101840.19;;;12.70;81.68
55456;BME280;63021;52.836;6.376;2023-05-12T04:40:26;101844.53;;;12.71;82.05
55456;BME280;63021;52.836;6.376;2023-05-12T04:42:52;101847.81;;;12.75;81.31
55456;BME280;63021;52.836;6.376;2023-05-12T04:45:18;101852.31;;;12.74;81.36
55456;BME280;63021;52.836;6.376;2023-05-12T04:47:43;101849.63;;;12.74;81.80
55456;BME280;63021;52.836;6.376;2023-05-12T04:50:09;101852.19;;;12.76;81.58
55456;BME280;63021;52.836;6.376;2023-05-12T04:52:35;101860.88;;;12.78;81.17
55456;BME280;63021;52.836;6.376;2023-05-12T04:55:00;101865.25;;;12.79;81.85
55456;BME280;63021;52.836;6.376;2023-05-12T04:57:26;101862.44;;;12.80;81.87
55456;BME280;63021;52.836;6.376;2023-05-12T04:59:51;101873.97;;;12.81;81.54
55456;BME280;63021;52.836;6.376;2023-05-12T05:02:17;101868.34;;;12.84;81.48
55456;BME280;63021;52.836;6.376;2023-05-12T05:04:42;101868.94;;;12.88;81.79
55456;BME280;63021;52.836;6.376;2023-05-12T05:07:08;101875.09;;;12.88;82.07
55456;BME280;63021;52.836;6.376;2023-05-12T05:09:34;101871.31;;;12.91;81.72
55456;BME280;63021;52.836;6.376;2023-05-12T05:11:59;101883.56;;;12.93;81.75
55456;BME280;63021;52.836;6.376;2023-05-12T05:14:25;101881.59;;;12.95;81.69
55456;BME280;63021;52.836;6.376;2023-05-12T05:16:51;101879.66;;;12.97;81.66
55456;BME280;63021;52.836;6.376;2023-05-12T05:19:16;101884.84;;;12.99;81.80
55456;BME280;63021;52.836;6.376;2023-05-12T05:21:41;101889.09;;;13.02;81.79
55456;BME280;63021;52.836;6.376;2023-05-12T05:24:07;101884.44;;;13.04;81.37
55456;BME280;63021;52.836;6.376;2023-05-12T05:26:33;101891.34;;;13.06;81.52
55456;BME280;63021;52.836;6.376;2023-05-12T05:28:58;101888.81;;;13.05;81.44
55456;BME280;63021;52.836;6.376;2023-05-12T05:31:24;101887.81;;;13.06;81.44
55456;BME280;63021;52.836;6.376;2023-05-12T05:33:50;101894.72;;;13.08;81.33
55456;BME280;63021;52.836;6.376;2023-05-12T05:36:15;101893.59;;;13.11;81.46
55456;BME280;63021;52.836;6.376;2023-05-12T05:38:41;101895.16;;;13.13;81.15
55456;BME280;63021;52.836;6.376;2023-05-12T05:41:07;101903.03;;;13.15;81.52
55456;BME280;63021;52.836;6.376;2023-05-12T05:43:32;101900.38;;;13.15;80.92
55456;BME280;63021;52.836;6.376;2023-05-12T05:45:58;101901.34;;;13.14;80.88
55456;BME280;63021;52.836;6.376;2023-05-12T05:48:24;101898.81;;;13.12;80.49
55456;BME280;63021;52.836;6.376;2023-05-12T05:50:50;101904.28;;;13.11;81.07
55456;BME280;63021;52.836;6.376;2023-05-12T05:53:16;101903.47;;;13.10;80.94
55456;BME280;63021;52.836;6.376;2023-05-12T05:55:43;101915.69;;;13.13;81.04
55456;BME280;63021;52.836;6.376;2023-05-12T05:58:09;101915.44;;;13.16;81.10
55456;BME280;63021;52.836;6.376;2023-05-12T06:00:35;101918.78;;;13.18;80.62
55456;BME280;63021;52.836;6.376;2023-05-12T06:03:00;101911.75;;;13.17;80.94
55456;BME280;63021;52.836;6.376;2023-05-12T06:05:25;101913.44;;;13.18;80.96
55456;BME280;63021;52.836;6.376;2023-05-12T06:07:51;101928.53;;;13.19;81.04
55456;BME280;63021;52.836;6.376;2023-05-12T06:10:16;101920.63;;;13.17;80.56
55456;BME280;63021;52.836;6.376;2023-05-12T06:12:41;101933.88;;;13.19;80.73
55456;BME280;63021;52.836;6.376;2023-05-12T06:15:07;101940.88;;;13.20;80.64
55456;BME280;63021;52.836;6.376;2023-05-12T06:17:33;101932.84;;;13.20;80.81
55456;BME280;63021;52.836;6.376;2023-05-12T06:19:58;101934.56;;;13.21;80.62
55456;BME280;63021;52.836;6.376;2023-05-12T06:22:24;101943.16;;;13.25;80.78
55456;BME280;63021;52.836;6.376;2023-05-12T06:24:49;101951.06;;;13.26;80.80
55456;BME280;63021;52.836;6.376;2023-05-12T06:27:15;101957.97;;;13.29;80.71
55456;BME280;63021;52.836;6.376;2023-05-12T06:29:43;101961.19;;;13.32;80.64
55456;BME280;63021;52.836;6.376;2023-05-12T06:32:09;101953.91;;;13.34;80.59
55456;BME280;63021;52.836;6.376;2023-05-12T06:34:34;101957.28;;;13.37;80.41
55456;BME280;63021;52.836;6.376;2023-05-12T06:37:00;101951.81;;;13.38;80.54
55456;BME280;63021;52.836;6.376;2023-05-12T06:39:25;101949.13;;;13.38;80.19
55456;BME280;63021;52.836;6.376;2023-05-12T06:41:51;101956.31;;;13.38;80.43
55456;BME280;63021;52.836;6.376;2023-05-12T06:44:16;101970.38;;;13.40;80.80
55456;BME280;63021;52.836;6.376;2023-05-12T06:46:42;101961.25;;;13.42;80.48
55456;BME280;63021;52.836;6.376;2023-05-12T06:49:07;101960.28;;;13.43;80.78
55456;BME280;63021;52.836;6.376;2023-05-12T06:51:33;101969.97;;;13.44;80.25
55456;BME280;63021;52.836;6.376;2023-05-12T06:54:00;101962.66;;;13.46;81.01
55456;BME280;63021;52.836;6.376;2023-05-12T06:56:27;101964.22;;;13.49;81.21
55456;BME280;63021;52.836;6.376;2023-05-12T06:58:56;101977.47;;;13.50;80.61
55456;BME280;63021;52.836;6.376;2023-05-12T07:01:27;101967.59;;;13.51;80.82
55456;BME280;63021;52.836;6.376;2023-05-12T07:03:53;101974.63;;;13.52;80.18
55456;BME280;63021;52.836;6.376;2023-05-12T07:06:20;101974.63;;;13.52;80.99
55456;BME280;63021;52.836;6.376;2023-05-12T07:08:45;101975.47;;;13.52;80.81
55456;BME280;63021;52.836;6.376;2023-05-12T07:11:11;101977.03;;;13.55;80.77
55456;BME280;63021;52.836;6.376;2023-05-12T07:13:37;101974.06;;;13.58;80.86
55456;BME280;63021;52.836;6.376;2023-05-12T07:16:03;101983.53;;;13.62;81.08
55456;BME280;63021;52.836;6.376;2023-05-12T07:18:28;101982.25;;;13.66;81.03
55456;BME280;63021;52.836;6.376;2023-05-12T07:20:54;101972.97;;;13.71;80.75
55456;BME280;63021;52.836;6.376;2023-05-12T07:23:19;101977.03;;;13.75;81.30
55456;BME280;63021;52.836;6.376;2023-05-12T07:25:45;101985.50;;;13.80;81.29
55456;BME280;63021;52.836;6.376;2023-05-12T07:28:10;101982.41;;;13.84;81.13
55456;BME280;63021;52.836;6.376;2023-05-12T07:30:36;101987.31;;;13.89;81.24
55456;BME280;63021;52.836;6.376;2023-05-12T07:33:01;101991.56;;;13.92;80.70
55456;BME280;63021;52.836;6.376;2023-05-12T07:35:27;101987.63;;;13.96;80.94
55456;BME280;63021;52.836;6.376;2023-05-12T07:37:52;101989.84;;;14.00;80.83
55456;BME280;63021;52.836;6.376;2023-05-12T07:40:18;101995.06;;;14.02;80.44
55456;BME280;63021;52.836;6.376;2023-05-12T07:42:44;101996.63;;;14.04;81.03
55456;BME280;63021;52.836;6.376;2023-05-12T07:45:09;101995.34;;;14.09;80.36
55456;BME280;63021;52.836;6.376;2023-05-12T07:47:35;101999.59;;;14.11;80.53
55456;BME280;63021;52.836;6.376;2023-05-12T07:50:00;101998.31;;;14.15;80.68
55456;BME280;63021;52.836;6.376;2023-05-12T07:52:26;102005.34;;;14.16;80.64
55456;BME280;63021;52.836;6.376;2023-05-12T07:54:51;101998.88;;;14.19;80.30
55456;BME280;63021;52.836;6.376;2023-05-12T07:57:16;102008.31;;;14.23;80.86
55456;BME280;63021;52.836;6.376;2023-05-12T07:59:42;102012.13;;;14.30;80.62
55456;BME280;63021;52.836;6.376;2023-05-12T08:02:08;102008.03;;;14.36;80.56
55456;BME280;63021;52.836;6.376;2023-05-12T08:04:33;102008.00;;;14.46;80.60
55456;BME280;63021;52.836;6.376;2023-05-12T08:06:59;102020.38;;;14.56;80.97
55456;BME280;63021;52.836;6.376;2023-05-12T08:09:24;102021.41;;;14.65;80.88
55456;BME280;63021;52.836;6.376;2023-05-12T08:11:49;102014.59;;;14.71;80.75
55456;BME280;63021;52.836;6.376;2023-05-12T08:14:15;102019.53;;;14.76;80.29
55456;BME280;63021;52.836;6.376;2023-05-12T08:16:40;102017.53;;;14.78;79.86
55456;BME280;63021;52.836;6.376;2023-05-12T08:19:09;102032.06;;;14.85;79.86
55456;BME280;63021;52.836;6.376;2023-05-12T08:21:35;102028.63;;;14.93;79.95
55456;BME280;63021;52.836;6.376;2023-05-12T08:24:00;102038.78;;;14.99;79.89
55456;BME280;63021;52.836;6.376;2023-05-12T08:26:26;102036.50;;;15.04;79.38
55456;BME280;63021;52.836;6.376;2023-05-12T08:28:51;102037.75;;;15.10;79.36
55456;BME280;63021;52.836;6.376;2023-05-12T08:31:16;102042.69;;;15.14;78.99
55456;BME280;63021;52.836;6.376;2023-05-12T08:33:42;102038.84;;;15.17;79.06
55456;BME280;63021;52.836;6.376;2023-05-12T08:36:07;102043.91;;;15.20;79.27
55456;BME280;63021;52.836;6.376;2023-05-12T08:38:32;102030.91;;;15.25;78.95
55456;BME280;63021;52.836;6.376;2023-05-12T08:41:11;102033.13;;;15.30;78.76
55456;BME280;63021;52.836;6.376;2023-05-12T08:43:45;102044.13;;;15.36;78.68
55456;BME280;63021;52.836;6.376;2023-05-12T08:46:14;102041.84;;;15.41;78.27
55456;BME280;63021;52.836;6.376;2023-05-12T08:48:40;102039.69;;;15.45;78.00
55456;BME280;63021;52.836;6.376;2023-05-12T08:51:07;102039.38;;;15.48;78.11
55456;BME280;63021;52.836;6.376;2023-05-12T08:53:35;102034.59;;;15.52;77.70
55456;BME280;63021;52.836;6.376;2023-05-12T08:56:02;102039.19;;;15.59;77.98
55456;BME280;63021;52.836;6.376;2023-05-12T08:58:30;102042.13;;;15.66;77.88
55456;BME280;63021;52.836;6.376;2023-05-12T09:00:56;102036.97;;;15.73;77.98
55456;BME280;63021;52.836;6.376;2023-05-12T09:03:26;102034.69;;;15.78;77.82
55456;BME280;63021;52.836;6.376;2023-05-12T09:05:52;102041.16;;;15.85;77.62
55456;BME280;63021;52.836;6.376;2023-05-12T09:08:18;102037.34;;;15.88;77.50
55456;BME280;63021;52.836;6.376;2023-05-12T09:10:44;102036.19;;;15.90;77.15
55456;BME280;63021;52.836;6.376;2023-05-12T09:13:19;102033.56;;;15.99;76.99
55456;BME280;63021;52.836;6.376;2023-05-12T09:15:47;102042.53;;;16.07;77.06
55456;BME280;63021;52.836;6.376;2023-05-12T09:18:13;102042.78;;;16.14;77.17
55456;BME280;63021;52.836;6.376;2023-05-12T09:20:39;102042.16;;;16.20;76.80
55456;BME280;63021;52.836;6.376;2023-05-12T09:23:15;102046.63;;;16.30;76.91
55456;BME280;63021;52.836;6.376;2023-05-12T09:25:41;102050.22;;;16.38;76.43
55456;BME280;63021;52.836;6.376;2023-05-12T09:28:07;102055.50;;;16.48;76.41
55456;BME280;63021;52.836;6.376;2023-05-12T09:30:33;102050.03;;;16.58;76.68
55456;BME280;63021;52.836;6.376;2023-05-12T09:33:10;102061.53;;;16.68;76.11
55456;BME280;63021;52.836;6.376;2023-05-12T09:35:42;102058.19;;;16.74;75.58
55456;BME280;63021;52.836;6.376;2023-05-12T09:38:08;102056.34;;;16.75;75.28
55456;BME280;63021;52.836;6.376;2023-05-12T09:40:34;102053.88;;;16.82;75.44
55456;BME280;63021;52.836;6.376;2023-05-12T09:43:01;102054.63;;;16.92;75.37
55456;BME280;63021;52.836;6.376;2023-05-12T09:45:26;102057.38;;;17.00;75.37
55456;BME280;63021;52.836;6.376;2023-05-12T09:47:52;102050.72;;;17.12;74.94
55456;BME280;63021;52.836;6.376;2023-05-12T09:50:17;102056.13;;;17.21;75.23
55456;BME280;63021;52.836;6.376;2023-05-12T09:52:43;102046.22;;;17.29;75.05
55456;BME280;63021;52.836;6.376;2023-05-12T09:55:12;102047.81;;;17.40;74.05
55456;BME280;63021;52.836;6.376;2023-05-12T09:57:40;102050.53;;;17.48;73.87
55456;BME280;63021;52.836;6.376;2023-05-12T10:00:07;102051.41;;;17.57;73.78
55456;BME280;63021;52.836;6.376;2023-05-12T10:02:33;102044.84;;;17.60;73.13
55456;BME280;63021;52.836;6.376;2023-05-12T10:05:03;102037.28;;;17.63;72.67
55456;BME280;63021;52.836;6.376;2023-05-12T10:07:31;102039.13;;;17.71;72.56
55456;BME280;63021;52.836;6.376;2023-05-12T10:10:00;102049.91;;;17.79;72.93
55456;BME280;63021;52.836;6.376;2023-05-12T10:12:27;102044.91;;;17.84;72.13
55456;BME280;63021;52.836;6.376;2023-05-12T10:14:54;102050.31;;;17.93;71.54
55456;BME280;63021;52.836;6.376;2023-05-12T10:17:19;102042.75;;;18.05;71.54
55456;BME280;63021;52.836;6.376;2023-05-12T10:19:46;102054.06;;;18.16;71.76
55456;BME280;63021;52.836;6.376;2023-05-12T10:22:16;102060.28;;;18.33;71.69
55456;BME280;63021;52.836;6.376;2023-05-12T10:24:44;102053.88;;;18.43;71.97
55456;BME280;63021;52.836;6.376;2023-05-12T10:27:10;102057.75;;;18.57;71.33
55456;BME280;63021;52.836;6.376;2023-05-12T10:29:37;102056.53;;;18.67;71.08
55456;BME280;63021;52.836;6.376;2023-05-12T10:32:03;102047.59;;;18.75;70.54
55456;BME280;63021;52.836;6.376;2023-05-12T10:34:31;102041.50;;;18.81;69.48
55456;BME280;63021;52.836;6.376;2023-05-12T10:36:57;102039.66;;;18.90;69.16
55456;BME280;63021;52.836;6.376;2023-05-12T10:39:31;102039.66;;;18.98;68.73
55456;BME280;63021;52.836;6.376;2023-05-12T10:42:07;102043.34;;;19.06;68.17
55456;BME280;63021;52.836;6.376;2023-05-12T10:44:34;102049.91;;;19.11;67.63
55456;BME280;63021;52.836;6.376;2023-05-12T10:47:01;102044.78;;;19.16;67.71
55456;BME280;63021;52.836;6.376;2023-05-12T10:49:34;102042.59;;;19.20;67.41
55456;BME280;63021;52.836;6.376;2023-05-12T10:52:03;102045.63;;;19.25;66.86
55456;BME280;63021;52.836;6.376;2023-05-12T10:54:30;102025.69;;;19.26;66.52
55456;BME280;63021;52.836;6.376;2023-05-12T10:57:01;102029.53;;;19.40;65.84
55456;BME280;63021;52.836;6.376;2023-05-12T10:59:26;102027.78;;;19.47;65.34
55456;BME280;63021;52.836;6.376;2023-05-12T11:02:11;102029.59;;;19.55;64.66
55456;BME280;63021;52.836;6.376;2023-05-12T11:05:01;102033.09;;;19.64;64.28
55456;BME280;63021;52.836;6.376;2023-05-12T11:07:30;102019.91;;;19.69;64.43
55456;BME280;63021;52.836;6.376;2023-05-12T11:09:58;102023.38;;;19.78;64.05
55456;BME280;63021;52.836;6.376;2023-05-12T11:12:25;102037.72;;;19.86;63.90
55456;BME280;63021;52.836;6.376;2023-05-12T11:14:51;102029.75;;;19.93;63.21
55456;BME280;63021;52.836;6.376;2023-05-12T11:17:17;102019.56;;;19.95;63.34
55456;BME280;63021;52.836;6.376;2023-05-12T11:19:47;102020.53;;;20.02;63.47
55456;BME280;63021;52.836;6.376;2023-05-12T11:22:16;102015.91;;;20.11;63.03
55456;BME280;63021;52.836;6.376;2023-05-12T11:24:42;102011.94;;;20.22;63.21
55456;BME280;63021;52.836;6.376;2023-05-12T11:27:15;102026.34;;;20.37;63.54
55456;BME280;63021;52.836;6.376;2023-05-12T11:29:42;102038.19;;;20.51;62.62
55456;BME280;63021;52.836;6.376;2023-05-12T11:32:09;102019.28;;;20.66;62.17
55456;BME280;63021;52.836;6.376;2023-05-12T11:34:36;102022.03;;;20.81;62.29
55456;BME280;63021;52.836;6.376;2023-05-12T11:37:03;102037.41;;;20.96;61.48
55456;BME280;63021;52.836;6.376;2023-05-12T11:39:29;102016.97;;;21.08;61.48
55456;BME280;63021;52.836;6.376;2023-05-12T11:42:02;102021.53;;;21.22;61.31
55456;BME280;63021;52.836;6.376;2023-05-12T11:44:31;102024.59;;;21.34;60.65
55456;BME280;63021;52.836;6.376;2023-05-12T11:47:11;102028.69;;;21.45;60.89
55456;BME280;63021;52.836;6.376;2023-05-12T11:49:48;102026.94;;;21.52;60.20
55456;BME280;63021;52.836;6.376;2023-05-12T11:52:14;102040.34;;;21.60;59.90
55456;BME280;63021;52.836;6.376;2023-05-12T11:57:32;102025.78;;;21.83;58.94
55456;BME280;63021;52.836;6.376;2023-05-12T12:00:00;102025.28;;;21.94;58.85
55456;BME280;63021;52.836;6.376;2023-05-12T12:02:26;102023.72;;;22.07;58.64
55456;BME280;63021;52.836;6.376;2023-05-12T12:04:52;102025.53;;;22.21;58.09
55456;BME280;63021;52.836;6.376;2023-05-12T12:07:35;102030.25;;;22.34;56.43
55456;BME280;63021;52.836;6.376;2023-05-12T12:10:14;102033.00;;;22.41;56.29
55456;BME280;63021;52.836;6.376;2023-05-12T12:12:43;102035.09;;;22.45;55.48
55456;BME280;63021;52.836;6.376;2023-05-12T12:15:10;102041.81;;;22.49;55.04
55456;BME280;63021;52.836;6.376;2023-05-12T12:17:37;102036.47;;;22.56;54.34
55456;BME280;63021;52.836;6.376;2023-05-12T12:20:04;102032.13;;;22.62;54.22
55456;BME280;63021;52.836;6.376;2023-05-12T12:22:29;102037.59;;;22.69;54.70
55456;BME280;63021;52.836;6.376;2023-05-12T12:24:58;102031.16;;;22.76;54.43
55456;BME280;63021;52.836;6.376;2023-05-12T12:27:24;102038.94;;;22.86;53.49
55456;BME280;63021;52.836;6.376;2023-05-12T12:29:49;102035.63;;;22.91;51.92
55456;BME280;63021;52.836;6.376;2023-05-12T12:32:15;102035.22;;;22.94;51.62
55456;BME280;63021;52.836;6.376;2023-05-12T12:34:40;102032.56;;;23.00;51.57
55456;BME280;63021;52.836;6.376;2023-05-12T12:37:06;102028.00;;;23.08;50.97
55456;BME280;63021;52.836;6.376;2023-05-12T12:39:32;102017.19;;;23.14;50.87
55456;BME280;63021;52.836;6.376;2023-05-12T12:41:57;102026.84;;;23.24;50.75
55456;BME280;63021;52.836;6.376;2023-05-12T12:44:23;102024.53;;;23.27;50.21
55456;BME280;63021;52.836;6.376;2023-05-12T12:46:48;102019.56;;;23.31;48.91
55456;BME280;63021;52.836;6.376;2023-05-12T12:49:13;102025.22;;;23.36;48.82